This is the latest recevied weather packets stored in our database for station/object KE5QKR. If no packets are shown the sender has not sent any weather packets the latest 10 day(s).
| Time | Temp. | Humidity | Pressure | Rain* | Wind** | Luminosity | Snow |
|---|---|---|---|---|---|---|---|
| 1777477994 | 28.89° C | 72% | 1013.7 hPa | 0 mm | - | 248 W/m² | - |
| 1777476780 | 27.78° C | 77% | 1014.1 hPa | 0 mm | - | 677 W/m² | - |
| 1777475869 | 28.33° C | 75% | 1013.6 hPa | 0 mm | - | 669 W/m² | - |
| 1777475262 | 27.78° C | 75% | 1013.8 hPa | 0 mm | - | 640 W/m² | - |
| 1777474957 | 27.78° C | 79% | 1014 hPa | 0 mm | - | 650 W/m² | - |
| 1777474653 | 27.78° C | 76% | 1013.7 hPa | 0 mm | - | 641 W/m² | - |
| 1777473441 | 26.67° C | 82% | 1013.8 hPa | 0 mm | - | 125 W/m² | - |
| 1777473136 | 26.11° C | 82% | 1013.7 hPa | 0 mm | - | 155 W/m² | - |
| 1777472834 | 26.67° C | 82% | 1013.7 hPa | 0 mm | - | 137 W/m² | - |
| 1777472227 | 26.67° C | 82% | 1013.5 hPa | 0 mm | - | 479 W/m² | - |
| 1777471923 | 26.67° C | 83% | 1013.4 hPa | 0 mm | - | 139 W/m² | - |
| 1777471620 | 27.22° C | 83% | 1013.3 hPa | 0 mm | - | 251 W/m² | - |
| 1777471316 | 26.11° C | 85% | 1013.4 hPa | 0 mm | - | 477 W/m² | - |
| 1777470406 | 26.67° C | 86% | 1013.5 hPa | 0 mm | - | 348 W/m² | - |
| 1777470103 | 25° C | 91% | 1013.5 hPa | 0 mm | - | 273 W/m² | - |
| 1777469798 | 24.44° C | 93% | 1013.7 hPa | 0 mm | - | 230 W/m² | - |
| 1777469189 | 23.89° C | 99% | 1013.9 hPa | 0 mm | - | 214 W/m² | - |
| 1777467979 | 22.78° C | 99% | 1013.7 hPa | 0 mm | - | 124 W/m² | - |
| 1777466156 | 21.11° C | 99% | 1013.8 hPa | 0 mm | - | 55 W/m² | - |
| 1777465244 | 20° C | 99% | 1013.5 hPa | 0 mm | - | 44 W/m² | - |
| 1777464331 | 20° C | 99% | 1013 hPa | 0 mm | - | 28 W/m² | - |
| 1777462809 | 19.44° C | 99% | 1012.9 hPa | 0 mm | - | 12 W/m² | - |
| 1777462503 | 19.44° C | 99% | 1013.3 hPa | 0 mm | - | 10 W/m² | - |
| 1777462200 | 19.44° C | 99% | 1012.7 hPa | 0 mm | - | 6 W/m² | - |
| 1777461897 | 19.44° C | 99% | 1012.7 hPa | 0 mm | - | 4 W/m² | - |
* Rain latest hour (hover to see other rain measurements)
** Current wind speed in m/s (hover to see current wind gust speed)